Tahawus, New York
Current Conditions -  °F | °C
As of 12:51 AM on Thursday 29 Jan 2015 (Local Time) from KSLK Reporting Station
Clear Clear  
Wind Chill: -14°   Ceiling: Unl
Heat Index: -14°   Visibility: 10mi
Dew Point: -19°   Wind: 0mph
Humidity: 79%   Direction: NA
Pressure: 30.19"   Gusts: NA
Location:  44.0508°N, 74.0396°W
Report Text: KSLK 290551Z AUTO 00000KT 10SM CLR M26/M28 A3019 RMK AO2 SLP268 I6000 T12561283 11144 21261 50005 $
Loading
Personal Weather Stations






























Interactive Weather Map New forecast layout! Learn more

10-Day Weather Forecast

Advertisements
Track Severe Weather on mobile